Simanovsk, Russia
Current Conditions -  °F | °C
As of 5:30 PM on Thursday 23 Oct 2014 (Local Time) from UHBB Reporting Station
Clear Clear  
Wind Chill: 41°   Ceiling: Unl
Heat Index: 41°   Visibility: 6mi
Dew Point: 23°   Wind: 2mph
Humidity: 49%   Direction: NA
Pressure: 29.71"   Gusts: NA
Location:  51.98°N, 127.65°E
Report Text: UHBB 230830Z VRB01MPS CAVOK 05/M05 Q1006 NOSIG RMK QFE737/098336090060
Loading
Personal Weather Stations






























Interactive Weather Map
Tropical Storm Tracking
New forecast layout! Learn more

10-Day Weather Forecast

Advertisements
Track Severe Weather on mobile